CheckWX is a tool to help pilots better visualize weather data.  It is not intended as a substitute for an official pre-flight weather briefing.

18:32:24 UTC

KIJD METAR
Windham Airport
Willimantic, Connecticut, USA
Current

40 mins ago

KIJD 221752Z AUTO 29009G15KT 10SM CLR 05/M06 A3031 RMK AO2 SLP265 T00501056 10050 20022 58002
Observed
Feb-22 @ 17:52 UTC
Wind
  • 290° at 9 KTS
  • Gusting to KTS
Visibility
10 SM
Flight Rules
VFR
Cloud Levels
  • Clear skies
Temperature
C / 41°F
Dewpoint
-6°C / 21°F
Humidity
45%
Altimeter
30.31" Hg
Pressure
1026.5 hPa
Previous

2 hours ago

KIJD 221652Z AUTO 10SM FEW045 04/M06 A3033 RMK AO2 SLP271 T00441061
Observed
Feb-22 @ 16:52 UTC
Visibility
10 SM
Flight Rules
VFR
Cloud Levels
  • Few at 4,500' AGL
Temperature
C / 39°F
Dewpoint
-6°C / 21°F
Humidity
48%
Altimeter
30.33" Hg
Pressure
1027.1 hPa
Previous

3 hours ago

KIJD 221552Z AUTO 28008KT 10SM BKN044 03/M06 A3034 RMK AO2 SLP274 T00331061
Observed
Feb-22 @ 15:52 UTC
Wind
  • 280° at 8 KTS
Visibility
10 SM
Flight Rules
VFR
Cloud Levels
  • Broken at 4,400' AGL
Temperature
C / 37°F
Dewpoint
-6°C / 21°F
Humidity
52%
Altimeter
30.34" Hg
Pressure
1027.4 hPa